Time;durP1;ratioP1;P1;durP2;ratioP2;P2;SDS_P1;SDS_P2;PMS_P1;PMS_P2;Temp;Humidity;BMP_temperature;BMP_pressure;BME280_temperature;BME280_humidity;BME280_pressure;Samples;Min_cycle;Max_cycle;Signal;HPM_P1;HPM_P2
2022/01/18 00:01:11;;;;;;;;;;;2.90;99.90;;;;;;5063422;28;20242;-73
2022/01/18 00:03:38;;;;;;;;;;;2.90;99.90;;;;;;5063386;28;19927;-73
2022/01/18 00:06:05;;;;;;;;;;;3.00;99.90;;;;;;5063487;28;19920;-73
2022/01/18 00:08:31;;;;;;;;;;;2.90;99.90;;;;;;5063812;28;19927;-74
2022/01/18 00:10:58;;;;;;;;;;;2.90;99.90;;;;;;5063308;28;19921;-73
2022/01/18 00:13:38;;;;;;;;;;;2.90;99.90;;;;;;5063267;28;19944;-73
2022/01/18 00:16:27;;;;;;;;;;;2.80;99.90;;;;;;5063949;28;19928;-73
2022/01/18 00:18:55;;;;;;;;;;;2.80;99.90;;;;;;5063568;28;20299;-73
2022/01/18 00:21:32;;;;;;;;;;;2.80;99.90;;;;;;5063158;28;19927;-73
2022/01/18 00:23:59;;;;;;;;;;;2.80;99.90;;;;;;5062985;28;19992;-74
2022/01/18 00:26:29;;;;;;;;;;;2.70;99.90;;;;;;5063595;28;19928;-74
2022/01/18 00:28:59;;;;;;;;;;;2.70;99.90;;;;;;5063490;28;19920;-72
2022/01/18 00:31:49;;;;;;;;;;;2.70;99.90;;;;;;5063290;28;20109;-73
2022/01/18 00:34:22;;;;;;;;;;;2.70;99.90;;;;;;5065328;28;19991;-73
2022/01/18 00:37:11;;;;;;;;;;;2.70;99.90;;;;;;5067209;28;19959;-73
2022/01/18 00:39:40;;;;;;;;;;;2.70;99.90;;;;;;5066851;28;20410;-75
2022/01/18 00:42:07;;;;;;;;;;;2.70;99.90;;;;;;5066806;28;19921;-72
2022/01/18 00:44:34;;;;;;;;;;;2.70;99.90;;;;;;5066923;28;19921;-73
2022/01/18 00:47:01;;;;;;;;;;;2.70;99.90;;;;;;5067198;28;20004;-73
2022/01/18 00:49:29;;;;;;;;;;;2.70;99.90;;;;;;5065538;28;19921;-72
2022/01/18 00:51:59;;;;;;;;;;;2.80;99.90;;;;;;5066938;28;20173;-73
2022/01/18 00:54:33;;;;;;;;;;;2.80;99.90;;;;;;5065857;28;20144;-73
2022/01/18 00:57:00;;;;;;;;;;;2.80;99.90;;;;;;5066476;28;19927;-73
2022/01/18 00:59:27;;;;;;;;;;;2.80;99.90;;;;;;5066442;28;20270;-73
2022/01/18 01:01:53;;;;;;;;;;;2.80;99.90;;;;;;5066704;28;19920;-73
2022/01/18 01:04:23;;;;;;;;;;;2.90;99.90;;;;;;5066394;28;19920;-73
2022/01/18 01:06:51;;;;;;;;;;;2.80;99.90;;;;;;5066775;28;19967;-73
2022/01/18 01:09:17;;;;;;;;;;;2.90;99.90;;;;;;5066461;28;19927;-72
2022/01/18 01:11:44;;;;;;;;;;;2.90;99.90;;;;;;5066267;28;20230;-73
2022/01/18 01:14:15;;;;;;;;;;;2.90;99.90;;;;;;5065806;28;20132;-73
2022/01/18 01:16:55;;;;;;;;;;;2.90;99.90;;;;;;5066565;28;19987;-73
2022/01/18 01:33:38;;;;;;;;;;;3.00;99.90;;;;;;5066024;28;20227;-73
2022/01/18 01:36:17;;;;;;;;;;;3.00;99.90;;;;;;5065674;28;19925;-76
2022/01/18 01:41:49;;;;;;;;;;;3.00;99.90;;;;;;5065848;28;19986;-73
2022/01/18 01:44:23;;;;;;;;;;;3.00;99.90;;;;;;5065431;28;19927;-73
2022/01/18 01:46:50;;;;;;;;;;;3.00;99.90;;;;;;5064871;28;20204;-73
2022/01/18 01:49:18;;;;;;;;;;;3.00;99.90;;;;;;5065460;28;19920;-74
2022/01/18 01:51:47;;;;;;;;;;;3.10;99.90;;;;;;5065759;28;20120;-74
2022/01/18 01:54:16;;;;;;;;;;;3.10;99.90;;;;;;5065526;28;19927;-74
2022/01/18 01:56:45;;;;;;;;;;;3.10;99.90;;;;;;5064606;28;20200;-73
2022/01/18 01:59:12;;;;;;;;;;;3.10;99.90;;;;;;5065478;28;20216;-73
2022/01/18 02:01:39;;;;;;;;;;;3.10;99.90;;;;;;5065731;28;19921;-73
2022/01/18 02:04:06;;;;;;;;;;;3.10;99.90;;;;;;5066602;28;19920;-74
2022/01/18 02:06:33;;;;;;;;;;;3.10;99.90;;;;;;5065587;28;19927;-74
2022/01/18 02:08:59;;;;;;;;;;;3.10;99.90;;;;;;5065124;28;20124;-73
2022/01/18 02:11:27;;;;;;;;;;;3.10;99.90;;;;;;5065244;28;19942;-73
2022/01/18 02:13:54;;;;;;;;;;;3.10;99.90;;;;;;5064823;28;19958;-74
2022/01/18 02:21:49;;;;;;;;;;;3.10;99.90;;;;;;5064878;28;19923;-73
2022/01/18 02:24:16;;;;;;;;;;;3.00;99.90;;;;;;5064984;28;20098;-74
2022/01/18 02:26:43;;;;;;;;;;;3.10;99.90;;;;;;5065292;28;19921;-74
2022/01/18 02:29:10;;;;;;;;;;;3.10;99.90;;;;;;5065104;28;19920;-73
2022/01/18 02:31:37;;;;;;;;;;;3.10;99.90;;;;;;5064844;28;20116;-73
2022/01/18 02:34:04;;;;;;;;;;;3.20;99.90;;;;;;5064657;28;19925;-73
2022/01/18 02:36:31;;;;;;;;;;;3.20;99.90;;;;;;5065083;28;20025;-73
2022/01/18 02:38:59;;;;;;;;;;;3.10;99.90;;;;;;5064809;28;19920;-73
2022/01/18 02:41:29;;;;;;;;;;;3.10;99.90;;;;;;5064756;28;19920;-73
2022/01/18 02:43:56;;;;;;;;;;;3.10;99.90;;;;;;5064524;28;19921;-73
2022/01/18 02:46:23;;;;;;;;;;;3.10;99.90;;;;;;5064610;28;19927;-74
2022/01/18 02:48:49;;;;;;;;;;;3.10;99.90;;;;;;5064540;28;19921;-73
2022/01/18 02:51:16;;;;;;;;;;;3.10;99.90;;;;;;5064708;28;19921;-73
2022/01/18 02:53:55;;;;;;;;;;;3.00;99.90;;;;;;5064267;28;19920;-73
2022/01/18 02:56:35;;;;;;;;;;;3.10;99.90;;;;;;5063554;28;19963;-73
2022/01/18 02:59:10;;;;;;;;;;;3.10;99.90;;;;;;5064852;28;19921;-73
2022/01/18 03:04:20;;;;;;;;;;;3.10;99.90;;;;;;5064287;28;19939;-73
2022/01/18 03:06:47;;;;;;;;;;;3.10;99.90;;;;;;5064305;28;20094;-74
2022/01/18 03:09:14;;;;;;;;;;;3.10;99.90;;;;;;5064362;28;19921;-73
2022/01/18 03:11:42;;;;;;;;;;;3.10;99.90;;;;;;5064307;28;19920;-73
2022/01/18 03:14:09;;;;;;;;;;;3.00;99.90;;;;;;5063576;28;19920;-73
2022/01/18 03:16:35;;;;;;;;;;;3.00;99.90;;;;;;5064536;28;19927;-74
2022/01/18 03:19:02;;;;;;;;;;;3.00;99.90;;;;;;5063966;28;19920;-74
2022/01/18 03:21:28;;;;;;;;;;;3.00;99.90;;;;;;5064234;28;19928;-73
2022/01/18 03:24:11;;;;;;;;;;;3.00;99.90;;;;;;5064009;28;19929;-74
2022/01/18 03:28:04;;;;;;;;;;;3.00;99.90;;;;;;5064317;28;19974;-73
2022/01/18 03:29:25;;;;;;;;;;;3.00;99.90;;;;;;5063843;28;19962;-74
2022/01/18 03:31:51;;;;;;;;;;;3.00;99.90;;;;;;5063958;28;19966;-73
2022/01/18 03:34:18;;;;;;;;;;;3.00;99.90;;;;;;5063350;28;19925;-74
2022/01/18 03:36:45;;;;;;;;;;;2.90;99.90;;;;;;5064131;28;19921;-73
2022/01/18 03:39:11;;;;;;;;;;;2.90;99.90;;;;;;5063824;28;19921;-73
2022/01/18 03:41:38;;;;;;;;;;;2.90;99.90;;;;;;5063662;28;20242;-74
2022/01/18 03:44:05;;;;;;;;;;;2.80;99.90;;;;;;5063348;28;19921;-74
2022/01/18 03:46:36;;;;;;;;;;;2.80;99.90;;;;;;5063726;28;20226;-73
2022/01/18 03:49:04;;;;;;;;;;;2.80;99.90;;;;;;5063820;28;19942;-73
2022/01/18 03:51:31;;;;;;;;;;;2.80;99.90;;;;;;5063489;28;19920;-73
2022/01/18 03:53:57;;;;;;;;;;;2.80;99.90;;;;;;5063409;28;19927;-73
2022/01/18 03:56:24;;;;;;;;;;;2.80;99.90;;;;;;5062856;28;19927;-73
2022/01/18 03:58:50;;;;;;;;;;;2.80;99.90;;;;;;5063715;28;19995;-73
2022/01/18 04:01:17;;;;;;;;;;;2.80;99.90;;;;;;5063717;28;19921;-73
2022/01/18 04:03:45;;;;;;;;;;;2.90;99.90;;;;;;5063092;28;19927;-73
2022/01/18 04:06:12;;;;;;;;;;;2.90;99.90;;;;;;5063361;28;19921;-73
2022/01/18 04:08:38;;;;;;;;;;;2.90;99.90;;;;;;5064822;28;19927;-74
2022/01/18 04:11:05;;;;;;;;;;;2.90;99.90;;;;;;5067758;28;19921;-73
2022/01/18 04:13:31;;;;;;;;;;;2.80;99.90;;;;;;5067176;28;19958;-73
2022/01/18 04:15:58;;;;;;;;;;;2.90;99.90;;;;;;5067807;28;20117;-74
2022/01/18 04:18:31;;;;;;;;;;;2.80;99.90;;;;;;5047567;28;19993;-74
2022/01/18 04:29:11;;;;;;;;;;;2.90;99.90;;;;;;5067384;28;20123;-74
2022/01/18 04:31:38;;;;;;;;;;;2.80;99.90;;;;;;5067613;28;19989;-74
2022/01/18 04:34:05;;;;;;;;;;;2.90;99.90;;;;;;5066724;28;20093;-74
2022/01/18 04:36:33;;;;;;;;;;;2.80;99.90;;;;;;5067486;28;19925;-74
2022/01/18 04:38:59;;;;;;;;;;;2.90;99.90;;;;;;5067105;28;19927;-73
2022/01/18 04:41:28;;;;;;;;;;;2.80;99.90;;;;;;5067334;28;19920;-73
2022/01/18 04:44:07;;;;;;;;;;;2.80;99.90;;;;;;5066806;28;19956;-73
2022/01/18 04:49:18;;;;;;;;;;;2.80;99.90;;;;;;5067177;28;19971;-74
2022/01/18 04:51:46;;;;;;;;;;;2.80;99.90;;;;;;5067129;28;19928;-75
2022/01/18 04:54:16;;;;;;;;;;;2.80;99.90;;;;;;5065468;28;19925;-75
2022/01/18 04:59:27;;;;;;;;;;;2.80;99.90;;;;;;5066771;28;19966;-74
2022/01/18 05:01:55;;;;;;;;;;;2.70;99.90;;;;;;5066739;28;19952;-75
2022/01/18 05:04:21;;;;;;;;;;;2.70;99.90;;;;;;5066491;28;19929;-75
2022/01/18 05:06:51;;;;;;;;;;;2.70;99.90;;;;;;5066804;28;19920;-75
2022/01/18 05:09:18;;;;;;;;;;;2.80;99.90;;;;;;5066903;28;20205;-74
2022/01/18 05:11:52;;;;;;;;;;;2.80;99.90;;;;;;5066735;28;19943;-74
2022/01/18 05:14:27;;;;;;;;;;;2.80;99.90;;;;;;5066375;28;19925;-73
2022/01/18 05:16:59;;;;;;;;;;;2.70;99.90;;;;;;5066708;28;19921;-74
2022/01/18 05:19:38;;;;;;;;;;;2.80;99.90;;;;;;5066210;28;19943;-74
2022/01/18 05:24:50;;;;;;;;;;;2.80;99.90;;;;;;5065185;28;19931;-74
2022/01/18 05:27:17;;;;;;;;;;;2.70;99.90;;;;;;5065944;28;19920;-74
2022/01/18 05:29:43;;;;;;;;;;;2.70;99.90;;;;;;5066280;28;20124;-74
2022/01/18 05:32:10;;;;;;;;;;;2.70;99.90;;;;;;5066786;28;19920;-74
2022/01/18 05:34:37;;;;;;;;;;;2.80;99.90;;;;;;5066410;28;19921;-74
2022/01/18 05:37:03;;;;;;;;;;;2.80;99.90;;;;;;5066676;28;19928;-73
2022/01/18 05:39:31;;;;;;;;;;;2.80;99.90;;;;;;5066898;28;19920;-74
2022/01/18 05:41:58;;;;;;;;;;;2.80;99.90;;;;;;5067266;28;20231;-74
2022/01/18 05:44:25;;;;;;;;;;;2.80;99.90;;;;;;5067595;28;20378;-74
2022/01/18 05:46:51;;;;;;;;;;;2.80;99.90;;;;;;5067450;28;19920;-73
2022/01/18 05:49:18;;;;;;;;;;;2.80;99.90;;;;;;5066835;28;19928;-74
2022/01/18 05:51:45;;;;;;;;;;;2.80;99.90;;;;;;5066370;28;19921;-74
2022/01/18 05:54:12;;;;;;;;;;;2.70;99.90;;;;;;5064788;28;19921;-73
2022/01/18 05:56:40;;;;;;;;;;;2.70;99.90;;;;;;5066140;28;20103;-75
2022/01/18 05:59:09;;;;;;;;;;;2.70;99.90;;;;;;5065772;28;19925;-74
2022/01/18 06:01:47;;;;;;;;;;;2.70;99.90;;;;;;5066039;28;19920;-73
2022/01/18 06:07:00;;;;;;;;;;;2.70;99.90;;;;;;5065505;28;19917;-73
2022/01/18 06:09:26;;;;;;;;;;;2.80;99.90;;;;;;5065944;28;20112;-73
2022/01/18 06:11:54;;;;;;;;;;;2.70;99.90;;;;;;5065090;28;19921;-73
2022/01/18 06:14:21;;;;;;;;;;;2.70;99.90;;;;;;5065241;28;19921;-74
2022/01/18 06:16:47;;;;;;;;;;;2.80;99.90;;;;;;5065866;28;19927;-74
2022/01/18 06:19:14;;;;;;;;;;;2.80;99.90;;;;;;5066366;28;19921;-73
2022/01/18 06:21:41;;;;;;;;;;;2.80;99.90;;;;;;5065264;28;20135;-74
2022/01/18 06:24:09;;;;;;;;;;;2.80;99.90;;;;;;5065166;28;19920;-73
2022/01/18 06:26:36;;;;;;;;;;;2.70;99.90;;;;;;5066031;28;19952;-73
2022/01/18 06:29:04;;;;;;;;;;;2.70;99.90;;;;;;5065225;28;19920;-73
2022/01/18 06:31:31;;;;;;;;;;;2.70;99.90;;;;;;5064898;28;19928;-72
2022/01/18 06:33:57;;;;;;;;;;;2.70;99.90;;;;;;5064226;28;19963;-74
2022/01/18 06:36:24;;;;;;;;;;;2.70;99.90;;;;;;5064720;28;19927;-74
2022/01/18 06:38:51;;;;;;;;;;;2.70;99.90;;;;;;5065014;28;19920;-75
2022/01/18 06:41:17;;;;;;;;;;;2.80;99.90;;;;;;5065342;28;19921;-75
2022/01/18 06:43:44;;;;;;;;;;;2.70;99.90;;;;;;5064557;28;19920;-75
2022/01/18 06:46:12;;;;;;;;;;;2.70;99.90;;;;;;5064788;28;19928;-75
2022/01/18 06:48:38;;;;;;;;;;;2.70;99.90;;;;;;5064736;28;20235;-75
2022/01/18 06:51:05;;;;;;;;;;;2.70;99.90;;;;;;5065148;28;19928;-75
2022/01/18 06:53:35;;;;;;;;;;;2.70;99.90;;;;;;5064572;28;19929;-74
2022/01/18 06:56:02;;;;;;;;;;;2.70;99.90;;;;;;5064445;28;19958;-75
2022/01/18 06:58:29;;;;;;;;;;;2.80;99.90;;;;;;5064996;28;19921;-75
2022/01/18 07:00:56;;;;;;;;;;;2.70;99.90;;;;;;5064625;28;20254;-75
2022/01/18 07:03:24;;;;;;;;;;;2.70;99.90;;;;;;5063688;28;19920;-75
2022/01/18 07:05:50;;;;;;;;;;;2.70;99.90;;;;;;5064014;28;20136;-75
2022/01/18 07:08:17;;;;;;;;;;;2.70;99.90;;;;;;5064872;28;19921;-75
2022/01/18 07:10:44;;;;;;;;;;;2.70;99.90;;;;;;5064241;28;19920;-75
2022/01/18 07:13:11;;;;;;;;;;;2.70;99.90;;;;;;5064191;28;20204;-74
2022/01/18 07:15:38;;;;;;;;;;;2.70;99.90;;;;;;5063739;28;19920;-75
2022/01/18 07:18:05;;;;;;;;;;;2.80;99.90;;;;;;5064576;28;19927;-74
2022/01/18 07:20:34;;;;;;;;;;;2.80;99.90;;;;;;5064666;28;19928;-77
2022/01/18 07:23:00;;;;;;;;;;;2.70;99.90;;;;;;5064260;28;19921;-77
2022/01/18 07:25:27;;;;;;;;;;;2.70;99.90;;;;;;5063520;28;19924;-76
2022/01/18 07:27:53;;;;;;;;;;;2.70;99.90;;;;;;5064518;28;19920;-74
2022/01/18 07:30:20;;;;;;;;;;;2.70;99.90;;;;;;5064943;28;19936;-75
2022/01/18 07:32:47;;;;;;;;;;;2.70;99.90;;;;;;5064841;28;19921;-75
2022/01/18 07:35:13;;;;;;;;;;;2.70;99.90;;;;;;5063419;28;19925;-73
2022/01/18 07:37:41;;;;;;;;;;;2.70;99.90;;;;;;5064097;28;19921;-76
2022/01/18 07:40:08;;;;;;;;;;;2.70;99.90;;;;;;5063900;28;20217;-76
2022/01/18 07:42:35;;;;;;;;;;;2.70;99.90;;;;;;5063101;28;19927;-76
2022/01/18 07:45:02;;;;;;;;;;;2.70;99.90;;;;;;5060632;28;19921;-76
2022/01/18 07:47:28;;;;;;;;;;;2.70;99.90;;;;;;5058407;28;19921;-74
2022/01/18 07:49:58;;;;;;;;;;;2.70;99.90;;;;;;5063840;28;19924;-74
2022/01/18 07:52:24;;;;;;;;;;;2.70;99.90;;;;;;5049211;28;20311;-75
2022/01/18 07:54:52;;;;;;;;;;;2.70;99.90;;;;;;5059580;28;20239;-76
2022/01/18 07:57:20;;;;;;;;;;;2.70;99.90;;;;;;5059686;28;19927;-76
2022/01/18 07:59:47;;;;;;;;;;;2.60;99.90;;;;;;5042185;28;19963;-76
2022/01/18 08:02:14;;;;;;;;;;;2.60;99.90;;;;;;5054666;28;19928;-76
2022/01/18 08:04:40;;;;;;;;;;;2.70;99.90;;;;;;5062871;28;19927;-74
2022/01/18 08:07:07;;;;;;;;;;;2.60;99.90;;;;;;5063899;28;19984;-73
2022/01/18 08:09:34;;;;;;;;;;;2.60;99.90;;;;;;5063260;28;20217;-73
2022/01/18 08:12:02;;;;;;;;;;;2.70;99.90;;;;;;5062694;28;19943;-73
2022/01/18 08:14:31;;;;;;;;;;;2.70;99.90;;;;;;5062501;28;19927;-74
2022/01/18 08:17:04;;;;;;;;;;;2.70;99.90;;;;;;5063573;28;19928;-76
2022/01/18 08:19:33;;;;;;;;;;;2.70;99.90;;;;;;5063471;28;20226;-76
2022/01/18 08:22:00;;;;;;;;;;;2.70;99.90;;;;;;5063314;28;19943;-75
2022/01/18 08:24:27;;;;;;;;;;;2.70;99.90;;;;;;5063400;28;19943;-75
2022/01/18 08:26:54;;;;;;;;;;;2.70;99.90;;;;;;5063386;28;19920;-74
2022/01/18 08:29:22;;;;;;;;;;;2.70;99.90;;;;;;5063565;28;19927;-75
2022/01/18 08:31:49;;;;;;;;;;;2.80;99.90;;;;;;5063126;28;19924;-75
2022/01/18 08:34:15;;;;;;;;;;;2.80;99.90;;;;;;5063241;28;20093;-73
2022/01/18 08:36:42;;;;;;;;;;;2.80;99.90;;;;;;5063124;28;19927;-72
2022/01/18 08:39:09;;;;;;;;;;;2.80;99.90;;;;;;5063509;28;19997;-73
2022/01/18 08:41:36;;;;;;;;;;;2.90;99.90;;;;;;5063029;28;19921;-73
2022/01/18 08:44:03;;;;;;;;;;;2.90;99.90;;;;;;5062914;28;19927;-73
2022/01/18 08:46:31;;;;;;;;;;;2.90;99.90;;;;;;5063185;28;20217;-73
2022/01/18 08:48:57;;;;;;;;;;;2.90;99.90;;;;;;5062976;28;19956;-73
2022/01/18 08:51:24;;;;;;;;;;;2.90;99.90;;;;;;5063273;28;19921;-73
2022/01/18 08:53:51;;;;;;;;;;;3.00;99.90;;;;;;5063021;28;19920;-73
2022/01/18 08:56:18;;;;;;;;;;;3.00;99.90;;;;;;5066888;28;19920;-73
2022/01/18 08:58:45;;;;;;;;;;;3.10;99.90;;;;;;5066944;28;19921;-73
2022/01/18 09:01:12;;;;;;;;;;;3.10;99.90;;;;;;5066524;28;20227;-75
2022/01/18 09:03:40;;;;;;;;;;;3.10;99.90;;;;;;5066520;28;19921;-73
2022/01/18 09:06:07;;;;;;;;;;;3.10;99.90;;;;;;5066509;28;19921;-73
2022/01/18 09:08:36;;;;;;;;;;;3.20;99.90;;;;;;5066436;28;19920;-73
2022/01/18 09:11:02;;;;;;;;;;;3.20;99.90;;;;;;5066776;28;19943;-75
2022/01/18 09:13:29;;;;;;;;;;;3.20;99.90;;;;;;5066761;28;19925;-76
2022/01/18 09:15:56;;;;;;;;;;;3.30;99.90;;;;;;5066338;28;20208;-75
2022/01/18 09:18:23;;;;;;;;;;;3.30;99.90;;;;;;5066621;28;19927;-73
2022/01/18 09:20:51;;;;;;;;;;;3.20;99.90;;;;;;5066536;28;19921;-73
2022/01/18 09:23:17;;;;;;;;;;;3.20;99.90;;;;;;5065890;28;19924;-72
2022/01/18 09:25:44;;;;;;;;;;;3.30;99.90;;;;;;5065956;28;19927;-73
2022/01/18 09:28:10;;;;;;;;;;;3.30;99.90;;;;;;5066271;28;19979;-73
2022/01/18 09:30:37;;;;;;;;;;;3.30;99.90;;;;;;5065686;28;19980;-73
2022/01/18 09:33:06;;;;;;;;;;;3.30;99.90;;;;;;5065809;28;19921;-73
2022/01/18 09:35:32;;;;;;;;;;;3.30;99.90;;;;;;5065349;28;19925;-75
2022/01/18 09:38:00;;;;;;;;;;;3.30;99.90;;;;;;5065909;28;20266;-75
2022/01/18 09:40:27;;;;;;;;;;;3.30;99.90;;;;;;5066135;28;19921;-73
2022/01/18 09:42:56;;;;;;;;;;;3.30;99.90;;;;;;5066095;28;19921;-73
2022/01/18 09:45:23;;;;;;;;;;;3.30;99.90;;;;;;5065320;28;19927;-75
2022/01/18 09:47:52;;;;;;;;;;;3.30;99.90;;;;;;5065542;28;20125;-75
2022/01/18 09:50:21;;;;;;;;;;;3.30;99.90;;;;;;5064922;28;19943;-75
2022/01/18 09:52:51;;;;;;;;;;;3.30;99.90;;;;;;5065295;28;20251;-75
2022/01/18 09:55:19;;;;;;;;;;;3.40;99.90;;;;;;5065037;28;19921;-75
2022/01/18 09:57:46;;;;;;;;;;;3.40;99.90;;;;;;5061973;28;19921;-75
2022/01/18 10:00:13;;;;;;;;;;;3.40;99.90;;;;;;5063014;28;19921;-73
2022/01/18 10:02:40;;;;;;;;;;;3.40;99.90;;;;;;5065211;28;19924;-75
2022/01/18 10:05:17;;;;;;;;;;;3.50;99.90;;;;;;5064592;28;19924;-73
2022/01/18 10:07:44;;;;;;;;;;;3.50;99.90;;;;;;5064348;28;20111;-75
2022/01/18 10:10:11;;;;;;;;;;;3.60;99.90;;;;;;5065053;28;19920;-75
2022/01/18 10:12:38;;;;;;;;;;;3.60;99.90;;;;;;5064206;28;19936;-72
2022/01/18 10:15:05;;;;;;;;;;;3.70;99.90;;;;;;5064227;28;19921;-73
2022/01/18 10:17:34;;;;;;;;;;;3.70;99.90;;;;;;5065458;28;19921;-71
2022/01/18 10:20:03;;;;;;;;;;;3.80;99.90;;;;;;5064892;28;19927;-73
2022/01/18 10:22:39;;;;;;;;;;;3.90;99.90;;;;;;5065153;28;19920;-73
2022/01/18 10:25:13;;;;;;;;;;;4.00;99.90;;;;;;5064103;28;19920;-73
2022/01/18 10:27:41;;;;;;;;;;;4.10;99.90;;;;;;5065075;28;20216;-72
2022/01/18 10:30:09;;;;;;;;;;;4.10;99.90;;;;;;5065022;28;20119;-72
2022/01/18 10:32:41;;;;;;;;;;;4.20;99.90;;;;;;5064818;28;20235;-73
2022/01/18 10:35:09;;;;;;;;;;;4.30;99.90;;;;;;5064200;28;19963;-72
2022/01/18 10:37:38;;;;;;;;;;;4.40;99.90;;;;;;5065053;28;19920;-74
2022/01/18 10:40:06;;;;;;;;;;;4.50;99.90;;;;;;5064796;28;19921;-73
2022/01/18 10:42:39;;;;;;;;;;;4.60;99.90;;;;;;5064699;28;19987;-72
2022/01/18 10:45:11;;;;;;;;;;;4.70;99.90;;;;;;5063751;28;19967;-73
2022/01/18 10:47:40;;;;;;;;;;;4.90;99.90;;;;;;5064821;28;19920;-73
2022/01/18 10:50:08;;;;;;;;;;;4.90;99.90;;;;;;5064666;28;19921;-72
2022/01/18 10:52:35;;;;;;;;;;;5.10;99.90;;;;;;5064589;28;19984;-73
2022/01/18 10:55:02;;;;;;;;;;;5.10;99.90;;;;;;5063729;28;19920;-73
2022/01/18 10:57:30;;;;;;;;;;;5.00;99.90;;;;;;5064480;28;19920;-73
2022/01/18 10:59:57;;;;;;;;;;;5.10;99.90;;;;;;5064652;28;19951;-72
2022/01/18 11:02:26;;;;;;;;;;;5.00;99.90;;;;;;5064492;28;19921;-72
2022/01/18 11:04:54;;;;;;;;;;;5.00;99.90;;;;;;5063078;28;20242;-72
2022/01/18 11:07:22;;;;;;;;;;;4.90;99.90;;;;;;5064416;28;19921;-71
2022/01/18 11:09:50;;;;;;;;;;;4.90;99.90;;;;;;5064463;28;19927;-72
2022/01/18 11:12:19;;;;;;;;;;;4.90;99.90;;;;;;5063233;28;19956;-72
2022/01/18 11:14:47;;;;;;;;;;;5.00;99.90;;;;;;5063586;28;19920;-72
2022/01/18 11:17:21;;;;;;;;;;;5.20;99.90;;;;;;5064083;28;19983;-73
2022/01/18 11:22:17;;;;;;;;;;;5.30;99.90;;;;;;5079977;28;19920;-70
2022/01/18 11:24:45;;;;;;;;;;;5.30;99.90;;;;;;5083819;28;19920;-70
2022/01/18 11:27:14;;;;;;;;;;;5.20;99.90;;;;;;5084258;28;19920;-70
2022/01/18 11:29:41;;;;;;;;;;;5.10;99.90;;;;;;5084095;28;19920;-70
2022/01/18 11:32:08;;;;;;;;;;;5.10;99.90;;;;;;5084054;28;19924;-70
2022/01/18 11:34:39;;;;;;;;;;;5.00;99.90;;;;;;5083756;28;19928;-70
2022/01/18 11:37:12;;;;;;;;;;;5.00;99.90;;;;;;5082604;28;20126;-69
2022/01/18 11:39:40;;;;;;;;;;;5.00;99.90;;;;;;5084024;28;19920;-69
2022/01/18 11:42:08;;;;;;;;;;;5.00;99.90;;;;;;5083186;28;19921;-70
2022/01/18 11:44:35;;;;;;;;;;;5.00;99.90;;;;;;5082454;28;20025;-71
2022/01/18 11:47:02;;;;;;;;;;;5.00;99.90;;;;;;5083797;28;19952;-70
2022/01/18 11:49:31;;;;;;;;;;;5.00;99.90;;;;;;5083856;28;20182;-70
2022/01/18 11:52:02;;;;;;;;;;;5.10;99.90;;;;;;5081800;28;20007;-70
2022/01/18 11:54:38;;;;;;;;;;;5.00;99.90;;;;;;5082058;28;19927;-70
2022/01/18 11:57:27;;;;;;;;;;;5.10;99.90;;;;;;5083525;28;19920;-70
2022/01/18 11:59:54;;;;;;;;;;;5.00;99.90;;;;;;5083351;28;19927;-71
2022/01/18 12:02:26;;;;;;;;;;;5.00;99.90;;;;;;5074539;28;19924;-70
2022/01/18 12:05:05;;;;;;;;;;;5.10;99.90;;;;;;5068065;28;20115;-70
2022/01/18 12:07:49;;;;;;;;;;;5.00;99.90;;;;;;5083814;28;19921;-70
2022/01/18 12:10:31;;;;;;;;;;;5.00;99.90;;;;;;5083740;28;19927;-70
2022/01/18 12:13:00;;;;;;;;;;;5.10;99.90;;;;;;5070923;28;19925;-70
2022/01/18 12:15:46;;;;;;;;;;;5.40;99.90;;;;;;5062957;28;20242;-70
2022/01/18 12:18:13;;;;;;;;;;;5.70;99.90;;;;;;5063445;28;19959;-70
2022/01/18 12:20:44;;;;;;;;;;;6.10;99.90;;;;;;5063076;28;19928;-70
2022/01/18 12:23:12;;;;;;;;;;;6.50;99.90;;;;;;5074272;28;20349;-71
2022/01/18 12:25:54;;;;;;;;;;;6.80;99.90;;;;;;5083128;28;19920;-70
2022/01/18 12:28:57;;;;;;;;;;;7.00;99.90;;;;;;5083167;28;20278;-70
2022/01/18 12:32:03;;;;;;;;;;;7.00;99.90;;;;;;5087302;28;19921;-70
2022/01/18 12:34:32;;;;;;;;;;;6.80;99.90;;;;;;5086912;28;19963;-71
2022/01/18 12:37:17;;;;;;;;;;;6.50;99.90;;;;;;5086132;28;20211;-71
2022/01/18 12:40:05;;;;;;;;;;;6.30;99.90;;;;;;5066373;28;19936;-70
2022/01/18 12:45:16;;;;;;;;;;;6.00;99.90;;;;;;5064315;28;20258;-71
2022/01/18 12:47:45;;;;;;;;;;;6.00;99.90;;;;;;5065676;28;19924;-72
2022/01/18 12:50:12;;;;;;;;;;;6.20;99.90;;;;;;5066585;28;19921;-72
2022/01/18 12:52:45;;;;;;;;;;;6.30;99.90;;;;;;5066864;28;20097;-72
2022/01/18 12:55:24;;;;;;;;;;;6.30;99.90;;;;;;5066892;28;19928;-71
2022/01/18 12:57:57;;;;;;;;;;;6.30;99.90;;;;;;5066957;28;19920;-71
2022/01/18 13:00:25;;;;;;;;;;;6.20;99.90;;;;;;5066560;28;19921;-71
2022/01/18 13:02:52;;;;;;;;;;;6.10;99.90;;;;;;5066627;28;19920;-71
2022/01/18 13:05:18;;;;;;;;;;;6.00;99.90;;;;;;5066384;28;20211;-71
2022/01/18 13:07:52;;;;;;;;;;;6.00;99.90;;;;;;5066543;28;20227;-71
2022/01/18 13:10:19;;;;;;;;;;;5.90;99.90;;;;;;5066392;28;19925;-71
2022/01/18 13:12:46;;;;;;;;;;;5.90;99.90;;;;;;5066618;28;20119;-72
2022/01/18 13:15:22;;;;;;;;;;;5.80;99.90;;;;;;5067987;28;20150;-71
2022/01/18 13:23:41;;;;;;;;;;;5.70;99.90;;;;;;5062885;28;19992;-72
2022/01/18 13:26:08;;;;;;;;;;;5.70;99.90;;;;;;5066411;28;19921;-72
2022/01/18 13:28:35;;;;;;;;;;;5.70;99.90;;;;;;5080740;28;19948;-71
2022/01/18 13:31:13;;;;;;;;;;;5.70;99.90;;;;;;5073214;28;19927;-71
2022/01/18 13:33:50;;;;;;;;;;;5.80;99.90;;;;;;5080953;28;19928;-72
2022/01/18 13:36:17;;;;;;;;;;;5.80;99.90;;;;;;5086512;28;19927;-71
2022/01/18 13:38:44;;;;;;;;;;;5.70;99.90;;;;;;5085900;28;19988;-71
2022/01/18 13:41:11;;;;;;;;;;;5.70;99.90;;;;;;5084355;28;20092;-72
2022/01/18 13:43:37;;;;;;;;;;;5.70;99.90;;;;;;5066436;28;19928;-72
2022/01/18 13:46:04;;;;;;;;;;;5.70;99.90;;;;;;5065753;28;19936;-71
2022/01/18 13:48:39;;;;;;;;;;;5.70;99.90;;;;;;5065774;28;20247;-72
2022/01/18 13:51:14;;;;;;;;;;;5.70;99.90;;;;;;5065826;28;19921;-71
2022/01/18 13:53:41;;;;;;;;;;;5.70;99.90;;;;;;5085730;28;19979;-72
2022/01/18 13:56:09;;;;;;;;;;;5.70;99.90;;;;;;5085809;28;19927;-71
2022/01/18 13:58:39;;;;;;;;;;;5.70;99.90;;;;;;5070089;28;19925;-72
2022/01/18 14:01:07;;;;;;;;;;;5.70;99.90;;;;;;5065516;28;19920;-71
2022/01/18 14:03:35;;;;;;;;;;;5.80;99.90;;;;;;5065172;28;19928;-72
2022/01/18 14:06:01;;;;;;;;;;;5.80;99.90;;;;;;5080006;28;19920;-72
2022/01/18 14:08:33;;;;;;;;;;;5.90;99.90;;;;;;5085344;28;19952;-72
2022/01/18 14:11:01;;;;;;;;;;;6.00;99.90;;;;;;5078737;28;19924;-71
2022/01/18 14:13:30;;;;;;;;;;;5.90;99.90;;;;;;5064815;28;20461;-72
2022/01/18 14:15:56;;;;;;;;;;;5.80;99.90;;;;;;5064987;28;19921;-72
2022/01/18 14:18:23;;;;;;;;;;;5.70;99.90;;;;;;5065515;28;19928;-72
2022/01/18 14:20:49;;;;;;;;;;;5.60;99.90;;;;;;5064954;28;19921;-72
2022/01/18 14:23:18;;;;;;;;;;;5.60;99.90;;;;;;5068076;28;19940;-71
2022/01/18 14:25:48;;;;;;;;;;;5.60;99.90;;;;;;5065153;28;19971;-71
2022/01/18 14:28:15;;;;;;;;;;;5.50;99.90;;;;;;5065560;28;19920;-70
2022/01/18 14:30:43;;;;;;;;;;;5.50;99.90;;;;;;5065080;28;19920;-71
2022/01/18 14:33:11;;;;;;;;;;;5.40;99.90;;;;;;5078095;28;19921;-71
2022/01/18 14:35:38;;;;;;;;;;;5.40;99.90;;;;;;5084964;28;20103;-70
2022/01/18 14:38:06;;;;;;;;;;;5.40;99.90;;;;;;5085128;28;19988;-70
2022/01/18 14:40:36;;;;;;;;;;;5.40;99.90;;;;;;5084541;28;19927;-71
2022/01/18 14:43:11;;;;;;;;;;;5.40;99.90;;;;;;5084773;28;20115;-72
2022/01/18 14:45:41;;;;;;;;;;;5.30;99.90;;;;;;5084877;28;19926;-72
2022/01/18 14:48:09;;;;;;;;;;;5.40;99.90;;;;;;5084596;28;19963;-72
2022/01/18 14:50:36;;;;;;;;;;;5.50;99.90;;;;;;5084785;28;19925;-72
2022/01/18 14:53:04;;;;;;;;;;;5.50;99.90;;;;;;5080355;28;19927;-72
2022/01/18 14:55:31;;;;;;;;;;;5.30;99.90;;;;;;5084304;28;19920;-72
2022/01/18 14:57:58;;;;;;;;;;;5.20;99.90;;;;;;5084533;28;19924;-72
2022/01/18 15:00:27;;;;;;;;;;;5.20;99.90;;;;;;5084712;28;20004;-72
2022/01/18 15:02:54;;;;;;;;;;;5.20;99.90;;;;;;5069845;28;19925;-72
2022/01/18 15:05:21;;;;;;;;;;;5.10;99.90;;;;;;5073450;28;19991;-72
2022/01/18 15:07:48;;;;;;;;;;;5.10;99.90;;;;;;5084397;28;19921;-72
2022/01/18 15:10:16;;;;;;;;;;;5.00;99.90;;;;;;5084399;28;19925;-72
2022/01/18 15:12:44;;;;;;;;;;;5.00;99.90;;;;;;5083507;28;19982;-72
2022/01/18 15:15:11;;;;;;;;;;;5.00;99.90;;;;;;5083845;28;19962;-72
2022/01/18 15:17:39;;;;;;;;;;;5.00;99.90;;;;;;5084015;28;19928;-73
2022/01/18 15:20:07;;;;;;;;;;;5.00;99.90;;;;;;5084077;28;19920;-72
2022/01/18 15:22:33;;;;;;;;;;;4.90;99.90;;;;;;5078309;28;19991;-72
2022/01/18 15:25:00;;;;;;;;;;;5.00;99.90;;;;;;5083955;28;19927;-71
2022/01/18 15:27:27;;;;;;;;;;;4.90;99.90;;;;;;5084010;28;19934;-72
2022/01/18 15:29:54;;;;;;;;;;;4.90;99.90;;;;;;5083897;28;19927;-70
2022/01/18 15:32:20;;;;;;;;;;;4.90;99.90;;;;;;5076222;28;19966;-71
2022/01/18 15:34:51;;;;;;;;;;;4.80;99.90;;;;;;5062426;28;19952;-71
2022/01/18 15:37:18;;;;;;;;;;;4.80;99.90;;;;;;5063321;28;20212;-72